createdAt,value
2019-02-15T00:01:59.172Z,8.58
2019-02-15T00:04:30.218Z,12.43
2019-02-15T00:07:01.222Z,8.93
2019-02-15T00:09:32.263Z,10.18
2019-02-15T00:12:03.340Z,9.55
2019-02-15T00:14:49.186Z,7.80
2019-02-15T00:17:21.877Z,29.82
2019-02-15T00:19:54.420Z,8.00
2019-02-15T00:22:25.423Z,5.95
2019-02-15T00:24:56.488Z,9.13
2019-02-15T00:27:27.622Z,11.00
2019-02-15T00:29:58.706Z,8.75
2019-02-15T00:32:29.791Z,6.60
2019-02-15T00:35:00.856Z,8.65
2019-02-15T00:37:31.904Z,9.55
2019-02-15T00:40:02.987Z,8.68
2019-02-15T00:42:34.020Z,15.80
2019-02-15T00:45:06.604Z,10.10
2019-02-15T00:47:39.214Z,16.37
2019-02-15T00:50:26.652Z,5.70
2019-02-15T00:53:08.359Z,9.08
2019-02-15T00:55:40.998Z,9.23
2019-02-15T00:58:19.635Z,10.93
2019-02-15T01:00:59.408Z,10.70
2019-02-15T01:03:40.636Z,7.10
2019-02-15T01:06:16.002Z,8.28
2019-02-15T01:08:54.695Z,8.73
2019-02-15T01:11:27.343Z,6.83
2019-02-15T01:13:58.383Z,11.00
2019-02-15T01:16:29.502Z,5.20
2019-02-15T01:19:00.578Z,7.58
2019-02-15T01:21:31.620Z,6.37
2019-02-15T01:24:02.697Z,15.93
2019-02-15T01:26:35.409Z,5.78
2019-02-15T01:29:24.120Z,7.65
2019-02-15T01:31:56.733Z,6.12
2019-02-15T01:34:41.145Z,6.80
2019-02-15T01:37:19.845Z,8.00
2019-02-15T01:40:07.543Z,6.65
2019-02-15T01:42:46.206Z,5.37
2019-02-15T01:45:18.848Z,12.35
2019-02-15T01:47:49.849Z,6.75
2019-02-15T01:50:20.852Z,6.67
2019-02-15T01:52:51.895Z,14.03
2019-02-15T01:55:22.961Z,7.22
2019-02-15T01:57:54.007Z,14.00
2019-02-15T02:00:26.646Z,5.22
2019-02-15T02:02:57.694Z,3.87
2019-02-15T02:05:28.765Z,6.42
2019-02-15T02:07:59.908Z,5.50
2019-02-15T02:10:30.974Z,5.92
2019-02-15T02:13:02.040Z,4.85
2019-02-15T02:15:33.048Z,4.65
2019-02-15T02:18:04.086Z,8.20
2019-02-15T02:20:35.161Z,4.22
2019-02-15T02:23:06.198Z,6.28
2019-02-15T02:25:37.274Z,6.47
2019-02-15T02:28:08.395Z,11.10
2019-02-15T02:30:39.477Z,9.65
2019-02-15T02:33:10.544Z,6.62
2019-02-15T02:35:41.656Z,6.30
2019-02-15T02:38:12.732Z,7.40
2019-02-15T02:40:43.860Z,5.72
2019-02-15T02:43:14.925Z,8.90
2019-02-15T02:45:45.977Z,3.70
2019-02-15T02:48:17.065Z,4.92
2019-02-15T02:50:48.107Z,4.75
2019-02-15T02:53:19.179Z,9.23
2019-02-15T02:55:50.224Z,4.00
2019-02-15T02:58:21.301Z,6.35
2019-02-15T03:00:52.355Z,5.17
2019-02-15T03:03:23.429Z,8.75
2019-02-15T03:05:54.476Z,5.17
2019-02-15T03:08:25.549Z,5.22
2019-02-15T03:10:56.617Z,3.35
2019-02-15T03:13:27.677Z,8.05
2019-02-15T03:15:58.717Z,5.55
2019-02-15T03:18:29.798Z,7.35
2019-02-15T03:21:00.838Z,20.80
2019-02-15T03:23:31.959Z,3.58
2019-02-15T03:26:03.044Z,8.08
2019-02-15T03:28:35.119Z,5.92
2019-02-15T03:31:06.194Z,3.95
2019-02-15T03:33:38.818Z,2.67
2019-02-15T03:36:11.526Z,5.85
2019-02-15T03:38:44.165Z,4.87
2019-02-15T03:41:19.804Z,5.12
2019-02-15T03:43:50.800Z,4.95
2019-02-15T03:46:21.839Z,3.72
2019-02-15T03:48:52.904Z,3.55
2019-02-15T03:51:23.982Z,6.15
2019-02-15T03:53:55.023Z,5.40
2019-02-15T03:56:26.113Z,5.92
2019-02-15T03:58:57.136Z,4.25
2019-02-15T04:01:28.146Z,9.68
2019-02-15T04:03:59.206Z,8.33
2019-02-15T04:06:30.348Z,8.85
2019-02-15T04:09:01.457Z,6.42
2019-02-15T04:11:33.929Z,7.90
2019-02-15T04:14:04.964Z,9.90
2019-02-15T04:16:36.086Z,9.65
2019-02-15T04:19:07.212Z,14.60
2019-02-15T04:21:38.278Z,9.93
2019-02-15T04:24:09.325Z,12.25
2019-02-15T04:26:40.399Z,13.30
2019-02-15T04:29:11.461Z,15.13
2019-02-15T04:31:42.594Z,19.17
2019-02-15T04:34:13.641Z,17.62
2019-02-15T04:36:44.742Z,24.18
2019-02-15T04:39:15.892Z,16.82
2019-02-15T04:41:47.001Z,20.08
2019-02-15T04:44:18.134Z,15.05
2019-02-15T04:46:50.167Z,19.70
2019-02-15T04:49:21.348Z,27.20
2019-02-15T04:51:52.474Z,24.92
2019-02-15T04:54:23.562Z,27.80
2019-02-15T04:56:54.546Z,32.50
2019-02-15T04:59:25.628Z,24.15
2019-02-15T05:01:56.704Z,21.33
2019-02-15T05:04:27.793Z,23.47
2019-02-15T05:06:58.849Z,20.97
2019-02-15T05:09:29.932Z,27.62
2019-02-15T05:12:00.983Z,19.50
2019-02-15T05:14:32.067Z,23.90
2019-02-15T05:17:03.055Z,28.15
2019-02-15T05:19:34.143Z,23.40
2019-02-15T05:22:05.192Z,20.88
2019-02-15T05:24:36.291Z,20.50
2019-02-15T05:27:07.363Z,18.65
2019-02-15T05:29:38.444Z,19.17
2019-02-15T05:32:10.218Z,20.20
2019-02-15T05:34:41.298Z,20.62
2019-02-15T05:37:12.392Z,19.05
2019-02-15T05:39:43.381Z,19.52
2019-02-15T05:42:14.452Z,17.15
2019-02-15T05:44:45.510Z,11.97
2019-02-15T05:47:16.695Z,16.15
2019-02-15T05:49:47.773Z,17.42
2019-02-15T05:52:18.823Z,20.65
2019-02-15T05:54:49.894Z,18.65
2019-02-15T05:57:20.966Z,16.93
2019-02-15T05:59:52.011Z,14.45
2019-02-15T06:02:23.090Z,13.90
2019-02-15T06:04:54.147Z,16.20
2019-02-15T06:07:25.308Z,16.42
2019-02-15T06:09:56.416Z,16.42
2019-02-15T06:12:27.492Z,18.10
2019-02-15T06:14:58.457Z,21.12
2019-02-15T06:17:29.537Z,14.80
2019-02-15T06:20:00.578Z,11.53
2019-02-15T06:22:31.649Z,16.55
2019-02-15T06:25:02.676Z,13.93
2019-02-15T06:27:33.752Z,16.07
2019-02-15T06:30:05.597Z,14.85
2019-02-15T06:32:36.678Z,12.98
2019-02-15T06:35:07.713Z,14.53
2019-02-15T06:37:38.781Z,14.80
2019-02-15T06:40:09.830Z,17.87
2019-02-15T06:42:40.921Z,20.82
2019-02-15T06:45:12.042Z,18.52
2019-02-15T06:47:43.102Z,24.05
2019-02-15T06:50:14.170Z,11.70
2019-02-15T06:52:45.210Z,18.05
2019-02-15T06:55:16.428Z,13.18
2019-02-15T06:57:47.517Z,13.32
2019-02-15T07:00:20.165Z,10.48
2019-02-15T07:02:55.424Z,10.20
2019-02-15T07:05:26.201Z,11.22
2019-02-15T07:07:57.242Z,16.02
2019-02-15T07:10:28.323Z,9.05
2019-02-15T07:12:59.372Z,11.53
2019-02-15T07:15:33.673Z,12.53
2019-02-15T07:18:03.155Z,10.95
2019-02-15T07:20:34.230Z,15.10
2019-02-15T07:23:05.270Z,21.90
2019-02-15T07:25:36.284Z,14.55
2019-02-15T07:28:07.341Z,20.57
2019-02-15T07:30:38.409Z,16.37
2019-02-15T07:33:09.551Z,19.30
2019-02-15T07:35:40.675Z,18.75
2019-02-15T07:38:11.756Z,32.05
2019-02-15T07:40:42.813Z,21.12
2019-02-15T07:43:13.829Z,23.12
2019-02-15T07:45:44.919Z,27.37
2019-02-15T07:48:15.968Z,18.98
2019-02-15T07:50:47.028Z,29.65
2019-02-15T07:53:18.084Z,25.35
2019-02-15T07:55:49.181Z,21.25
2019-02-15T07:58:20.246Z,28.20
2019-02-15T08:00:51.330Z,30.82
2019-02-15T08:03:22.381Z,18.17
2019-02-15T08:05:53.513Z,24.47
2019-02-15T08:08:24.609Z,21.55
2019-02-15T08:10:55.756Z,17.12
2019-02-15T08:13:26.904Z,20.57
2019-02-15T08:15:58.074Z,11.83
2019-02-15T08:18:29.157Z,13.80
2019-02-15T08:21:00.275Z,9.90
2019-02-15T08:23:31.404Z,13.53
2019-02-15T08:26:02.555Z,10.53
2019-02-15T08:28:33.886Z,13.48
2019-02-15T08:31:05.020Z,10.30
2019-02-15T08:33:36.110Z,12.13
2019-02-15T08:36:07.208Z,8.15
2019-02-15T08:38:38.328Z,7.37
2019-02-15T08:41:10.928Z,7.30
2019-02-15T08:43:41.981Z,9.00
2019-02-15T08:46:12.999Z,7.10
2019-02-15T08:48:46.491Z,8.45
2019-02-15T08:51:17.052Z,8.15
2019-02-15T08:53:50.306Z,25.60
2019-02-15T08:56:20.845Z,8.15
2019-02-15T08:58:51.910Z,8.95
2019-02-15T09:01:22.942Z,11.38
2019-02-15T09:03:53.995Z,16.87
2019-02-15T09:06:25.024Z,7.80
2019-02-15T09:08:56.076Z,8.53
2019-02-15T09:11:27.108Z,8.08
2019-02-15T09:13:58.169Z,8.00
2019-02-15T09:16:29.276Z,14.05
2019-02-15T09:19:00.257Z,7.67
2019-02-15T09:21:31.288Z,11.85
2019-02-15T09:24:02.355Z,7.30
2019-02-15T09:26:33.388Z,10.85
2019-02-15T09:29:05.724Z,8.25
2019-02-15T09:31:36.787Z,18.48
2019-02-15T09:34:07.752Z,13.43
2019-02-15T09:36:38.892Z,11.30
2019-02-15T09:39:09.914Z,6.62
2019-02-15T09:41:41.078Z,7.37
2019-02-15T09:44:12.099Z,19.75
2019-02-15T09:46:43.155Z,7.15
2019-02-15T09:49:14.178Z,6.12
2019-02-15T09:51:45.261Z,4.53
2019-02-15T09:54:16.288Z,7.20
2019-02-15T09:56:47.539Z,6.55
2019-02-15T09:59:18.568Z,9.05
2019-02-15T10:01:49.613Z,6.70
2019-02-15T10:04:20.635Z,10.48
2019-02-15T10:06:51.723Z,7.35
2019-02-15T10:09:22.748Z,5.20
2019-02-15T10:11:53.804Z,6.15
2019-02-15T10:14:24.826Z,6.05
2019-02-15T10:16:55.808Z,8.15
2019-02-15T10:19:26.881Z,6.03
2019-02-15T10:21:57.905Z,5.55
2019-02-15T10:24:28.964Z,5.92
2019-02-15T10:26:59.983Z,5.17
2019-02-15T10:29:31.158Z,6.37
2019-02-15T10:32:02.303Z,9.90
2019-02-15T10:34:33.363Z,19.00
2019-02-15T10:37:04.392Z,5.80
2019-02-15T10:39:35.464Z,9.33
2019-02-15T10:42:06.606Z,8.35
2019-02-15T10:44:37.693Z,4.22
2019-02-15T10:47:14.358Z,7.85
2019-02-15T10:49:41.515Z,9.90
2019-02-15T10:52:12.531Z,6.10
2019-02-15T10:54:43.575Z,3.70
2019-02-15T10:57:14.767Z,7.40
2019-02-15T10:59:45.916Z,15.60
2019-02-15T11:02:16.926Z,3.97
2019-02-15T11:04:48.081Z,15.43
2019-02-15T11:07:19.158Z,4.13
2019-02-15T11:09:50.217Z,4.57
2019-02-15T11:12:21.219Z,3.50
2019-02-15T11:14:52.259Z,6.87
2019-02-15T11:17:23.294Z,4.67
2019-02-15T11:19:54.304Z,4.53
2019-02-15T11:22:25.352Z,8.60
2019-02-15T11:24:56.358Z,5.30
2019-02-15T11:27:27.388Z,9.40
2019-02-15T11:29:58.401Z,8.40
2019-02-15T11:32:29.430Z,4.60
2019-02-15T11:35:00.468Z,5.87
2019-02-15T11:37:31.556Z,3.60
2019-02-15T11:40:02.571Z,3.13
2019-02-15T11:42:33.614Z,10.03
2019-02-15T11:45:06.516Z,5.40
2019-02-15T11:47:37.489Z,3.00
2019-02-15T11:50:12.117Z,8.43
2019-02-15T11:52:43.360Z,14.53
2019-02-15T11:55:14.367Z,7.60
2019-02-15T11:57:45.407Z,3.50
2019-02-15T12:00:28.261Z,13.47
2019-02-15T12:02:59.298Z,11.10
2019-02-15T12:05:30.304Z,6.67
2019-02-15T12:08:01.347Z,2.70
2019-02-15T12:10:32.355Z,4.43
2019-02-15T12:13:03.389Z,2.90
2019-02-15T12:15:34.422Z,3.23
2019-02-15T12:18:06.065Z,6.00
2019-02-15T12:20:37.088Z,2.50
2019-02-15T12:23:08.104Z,7.83
2019-02-15T12:25:39.143Z,1.87
2019-02-15T12:28:10.150Z,2.03
2019-02-15T12:30:41.191Z,2.33
2019-02-15T12:33:12.197Z,10.53
2019-02-15T12:35:43.231Z,6.07
2019-02-15T12:38:14.172Z,2.03
2019-02-15T12:40:45.141Z,3.10
2019-02-15T12:43:16.154Z,2.23
2019-02-15T12:45:47.197Z,4.30
2019-02-15T12:48:18.208Z,1.60
2019-02-15T12:50:49.297Z,5.33
2019-02-15T12:53:20.226Z,1.47
2019-02-15T12:55:51.266Z,2.57
2019-02-15T12:58:22.301Z,1.83
2019-02-15T13:00:53.301Z,1.93
2019-02-15T13:03:24.300Z,7.77
2019-02-15T13:05:55.309Z,4.97
2019-02-15T13:08:26.406Z,1.27
2019-02-15T13:10:57.406Z,2.80
2019-02-15T13:13:28.445Z,13.30
2019-02-15T13:15:59.449Z,1.17
2019-02-15T13:18:30.480Z,3.90
2019-02-15T13:21:01.491Z,1.50
2019-02-15T13:23:32.524Z,3.97
2019-02-15T13:26:08.642Z,1.77
2019-02-15T13:28:37.201Z,1.30
2019-02-15T13:31:08.208Z,1.40
2019-02-15T13:33:39.248Z,1.57
2019-02-15T13:36:10.285Z,1.90
2019-02-15T13:38:41.321Z,1.20
2019-02-15T13:41:12.263Z,1.47
2019-02-15T13:43:43.300Z,4.43
2019-02-15T13:46:14.307Z,2.60
2019-02-15T13:48:45.231Z,1.10
2019-02-15T13:51:16.212Z,1.40
2019-02-15T13:53:47.267Z,1.10
2019-02-15T13:56:18.300Z,2.57
2019-02-15T13:58:49.234Z,1.17
2019-02-15T14:01:20.494Z,1.20
2019-02-15T14:03:51.445Z,5.00
2019-02-15T14:06:22.480Z,1.00
2019-02-15T14:08:53.477Z,1.00
2019-02-15T14:11:24.544Z,1.43
2019-02-15T14:13:55.610Z,4.00
2019-02-15T14:16:26.648Z,1.23
2019-02-15T14:18:57.658Z,2.23
2019-02-15T14:21:28.691Z,1.03
2019-02-15T14:23:59.678Z,1.80
2019-02-15T14:26:30.707Z,4.13
2019-02-15T14:29:01.726Z,2.20
2019-02-15T14:31:32.771Z,10.17
2019-02-15T14:34:04.774Z,3.60
2019-02-15T14:36:35.821Z,9.23
2019-02-15T14:39:09.418Z,2.60
2019-02-15T14:41:40.455Z,4.50
2019-02-15T14:44:11.455Z,2.87
2019-02-15T14:46:42.493Z,6.00
2019-02-15T14:49:13.505Z,3.10
2019-02-15T14:51:44.550Z,5.20
2019-02-15T14:54:15.629Z,4.20
2019-02-15T14:56:46.636Z,3.50
2019-02-15T14:59:17.728Z,5.50
2019-02-15T15:01:48.784Z,7.43
2019-02-15T15:04:19.826Z,2.80
2019-02-15T15:06:50.825Z,2.77
2019-02-15T15:09:21.890Z,3.50
2019-02-15T15:11:53.005Z,3.17
2019-02-15T15:14:24.117Z,5.20
2019-02-15T15:16:55.132Z,8.43
2019-02-15T15:19:26.174Z,7.27
2019-02-15T15:21:57.253Z,6.87
2019-02-15T15:24:28.583Z,6.40
2019-02-15T15:26:59.670Z,5.73
2019-02-15T15:29:30.715Z,4.57
2019-02-15T15:32:01.721Z,4.63
2019-02-15T15:34:32.767Z,6.13
2019-02-15T15:37:03.782Z,9.37
2019-02-15T15:39:34.818Z,8.73
2019-02-15T15:42:05.821Z,6.80
2019-02-15T15:44:36.864Z,8.83
2019-02-15T15:47:08.175Z,5.80
2019-02-15T15:49:39.190Z,18.43
2019-02-15T15:52:10.226Z,6.00
2019-02-15T15:54:41.235Z,7.43
2019-02-15T15:57:12.212Z,7.37
2019-02-15T15:59:43.223Z,5.13
2019-02-15T16:02:14.290Z,14.80
2019-02-15T16:04:45.518Z,7.90
2019-02-15T16:07:16.575Z,9.03
2019-02-15T16:09:47.606Z,9.83
2019-02-15T16:12:18.727Z,7.30
2019-02-15T16:14:49.812Z,11.00
2019-02-15T16:17:21.183Z,6.40
2019-02-15T16:19:52.226Z,12.55
2019-02-15T16:22:23.293Z,14.87
2019-02-15T16:24:55.332Z,10.10
2019-02-15T16:27:26.534Z,9.48
2019-02-15T16:29:57.662Z,18.82
2019-02-15T16:32:28.733Z,11.97
2019-02-15T16:34:59.784Z,13.85
2019-02-15T16:37:30.841Z,8.73
2019-02-15T16:40:01.877Z,8.80
2019-02-15T16:42:32.935Z,10.40
2019-02-15T16:45:05.285Z,10.25
2019-02-15T16:47:36.501Z,13.03
2019-02-15T16:50:09.166Z,7.33
2019-02-15T16:52:40.156Z,9.88
2019-02-15T16:55:13.159Z,16.17
2019-02-15T16:57:44.243Z,9.15
2019-02-15T17:00:16.129Z,11.00
2019-02-15T17:02:47.224Z,8.60
2019-02-15T17:05:21.159Z,9.40
2019-02-15T17:07:52.233Z,22.00
2019-02-15T17:10:23.341Z,18.30
2019-02-15T17:12:54.411Z,14.73
2019-02-15T17:15:25.596Z,17.80
2019-02-15T17:17:56.777Z,9.83
2019-02-15T17:20:27.809Z,24.07
2019-02-15T17:22:58.865Z,16.32
2019-02-15T17:25:29.925Z,14.45
2019-02-15T17:28:00.915Z,20.15
2019-02-15T17:30:31.995Z,19.52
2019-02-15T17:33:03.102Z,19.00
2019-02-15T17:35:34.162Z,12.43
2019-02-15T17:38:05.250Z,14.85
2019-02-15T17:40:36.327Z,22.15
2019-02-15T17:43:07.546Z,19.32
2019-02-15T17:45:39.633Z,13.38
2019-02-15T17:48:10.688Z,15.25
2019-02-15T17:50:41.749Z,18.52
2019-02-15T17:53:12.786Z,12.95
2019-02-15T17:55:43.842Z,12.98
2019-02-15T17:58:15.866Z,9.83
2019-02-15T18:00:46.984Z,11.18
2019-02-15T18:03:18.420Z,10.65
2019-02-15T18:05:49.541Z,27.90
2019-02-15T18:08:20.569Z,11.53
2019-02-15T18:10:51.628Z,15.98
2019-02-15T18:13:22.658Z,13.60
2019-02-15T18:15:53.724Z,19.25
2019-02-15T18:18:24.763Z,11.73
2019-02-15T18:20:55.823Z,15.88
2019-02-15T18:23:26.875Z,22.02
2019-02-15T18:25:58.035Z,14.23
2019-02-15T18:28:29.086Z,15.65
2019-02-15T18:31:00.150Z,13.03
2019-02-15T18:33:31.193Z,23.50
2019-02-15T18:36:02.314Z,22.65
2019-02-15T18:38:33.341Z,16.82
2019-02-15T18:41:13.109Z,20.43
2019-02-15T18:43:37.329Z,12.65
2019-02-15T18:46:08.465Z,13.75
2019-02-15T18:48:41.977Z,28.87
2019-02-15T18:51:13.937Z,15.58
2019-02-15T18:53:45.010Z,19.95
2019-02-15T18:56:16.023Z,25.95
2019-02-15T18:58:47.148Z,14.45
2019-02-15T19:01:18.190Z,22.45
2019-02-15T19:03:49.256Z,16.02
2019-02-15T19:06:20.400Z,26.55
2019-02-15T19:08:51.601Z,65.25
2019-02-15T19:11:24.230Z,24.27
2019-02-15T19:13:55.291Z,33.80
2019-02-15T19:16:26.360Z,29.87
2019-02-15T19:18:57.385Z,17.87
2019-02-15T19:21:28.593Z,23.35
2019-02-15T19:23:59.795Z,27.75
2019-02-15T19:26:30.925Z,27.87
2019-02-15T19:29:01.994Z,27.10
2019-02-15T19:31:33.062Z,19.20
2019-02-15T19:34:04.104Z,20.35
2019-02-15T19:36:35.176Z,28.20
2019-02-15T19:39:07.706Z,23.20
2019-02-15T19:41:38.806Z,23.02
2019-02-15T19:44:10.039Z,21.12
2019-02-15T19:46:41.276Z,24.70
2019-02-15T19:49:12.421Z,36.25
2019-02-15T19:51:43.466Z,25.55
2019-02-15T19:54:14.511Z,27.70
2019-02-15T19:56:45.596Z,34.45
2019-02-15T19:59:16.709Z,22.73
2019-02-15T20:01:51.347Z,34.03
2019-02-15T20:04:22.455Z,23.57
2019-02-15T20:06:53.594Z,32.23
2019-02-15T20:09:24.667Z,27.77
2019-02-15T20:11:55.754Z,24.25
2019-02-15T20:14:27.129Z,33.95
2019-02-15T20:16:58.391Z,35.83
2019-02-15T20:19:31.211Z,29.52
2019-02-15T20:22:02.422Z,34.40
2019-02-15T20:24:33.648Z,29.82
2019-02-15T20:27:04.708Z,23.32
2019-02-15T20:29:36.173Z,28.98
2019-02-15T20:32:08.761Z,25.27
2019-02-15T20:34:45.294Z,33.60
2019-02-15T20:37:12.730Z,29.05
2019-02-15T20:39:43.902Z,39.60
2019-02-15T20:42:15.064Z,28.15
2019-02-15T20:44:46.135Z,22.55
2019-02-15T20:47:17.675Z,25.20
2019-02-15T20:49:57.492Z,27.58
2019-02-15T20:52:22.816Z,17.95
2019-02-15T20:54:53.927Z,16.87
2019-02-15T20:57:25.056Z,16.97
2019-02-15T20:59:56.289Z,18.40
2019-02-15T21:02:27.736Z,15.78
2019-02-15T21:04:58.839Z,11.90
2019-02-15T21:07:29.953Z,21.05
2019-02-15T21:10:01.026Z,18.55
2019-02-15T21:12:32.398Z,21.00
2019-02-15T21:15:03.715Z,19.85
2019-02-15T21:17:34.942Z,18.10
2019-02-15T21:20:11.925Z,24.65
2019-02-15T21:22:43.017Z,25.00
2019-02-15T21:25:16.918Z,31.50
2019-02-15T21:27:48.009Z,31.23
2019-02-15T21:30:20.591Z,34.90
2019-02-15T21:32:51.675Z,31.05
2019-02-15T21:35:22.828Z,29.63
2019-02-15T21:37:53.876Z,26.60
2019-02-15T21:40:24.973Z,27.30
2019-02-15T21:42:56.137Z,38.48
2019-02-15T21:45:27.189Z,43.23
2019-02-15T21:47:58.422Z,35.17
2019-02-15T21:50:29.601Z,52.43
2019-02-15T21:53:00.657Z,44.10
2019-02-15T21:55:33.204Z,39.67
2019-02-15T21:58:04.299Z,64.32
2019-02-15T22:00:35.702Z,31.30
2019-02-15T22:03:08.352Z,39.25
2019-02-15T22:05:39.444Z,41.63
2019-02-15T22:08:10.604Z,41.65
2019-02-15T22:10:41.684Z,60.15
2019-02-15T22:13:12.759Z,41.35
2019-02-15T22:15:43.850Z,43.38
2019-02-15T22:18:14.940Z,43.55
2019-02-15T22:20:45.990Z,44.40
2019-02-15T22:23:17.098Z,46.20
2019-02-15T22:25:48.181Z,36.30
2019-02-15T22:28:19.358Z,42.90
2019-02-15T22:30:50.454Z,33.73
2019-02-15T22:33:21.579Z,37.80
2019-02-15T22:35:52.792Z,39.83
2019-02-15T22:38:23.863Z,36.17
2019-02-15T22:41:05.272Z,46.42
2019-02-15T22:43:36.352Z,36.85
2019-02-15T22:46:07.404Z,42.90
2019-02-15T22:48:38.492Z,37.93
2019-02-15T22:51:09.510Z,40.33
2019-02-15T22:53:40.567Z,33.30
2019-02-15T22:56:11.656Z,36.13
2019-02-15T22:58:42.736Z,36.88
2019-02-15T23:01:16.215Z,32.63
2019-02-15T23:03:48.311Z,48.13
2019-02-15T23:06:19.403Z,32.60
2019-02-15T23:08:51.492Z,34.08
2019-02-15T23:11:22.776Z,39.73
2019-02-15T23:13:53.861Z,26.95
2019-02-15T23:16:24.849Z,33.35
2019-02-15T23:18:56.030Z,39.83
2019-02-15T23:21:27.110Z,37.60
2019-02-15T23:23:58.174Z,42.30
2019-02-15T23:26:29.259Z,41.53
2019-02-15T23:29:00.371Z,36.48
2019-02-15T23:31:31.430Z,45.80
2019-02-15T23:34:02.507Z,35.25
2019-02-15T23:36:33.595Z,29.18
2019-02-15T23:39:04.853Z,25.50
2019-02-15T23:41:37.486Z,24.72
2019-02-15T23:44:08.572Z,20.50
2019-02-15T23:46:39.623Z,21.77
2019-02-15T23:49:10.713Z,34.43
2019-02-15T23:51:41.804Z,27.73
2019-02-15T23:54:12.867Z,22.32
2019-02-15T23:56:43.946Z,20.62
2019-02-15T23:59:15.030Z,23.27
